createdAt,value
2022-10-04T00:00:01.113Z,10.80
2022-10-04T00:01:01.116Z,10.77
2022-10-04T00:02:01.163Z,10.81
2022-10-04T00:03:01.151Z,10.83
2022-10-04T00:04:01.071Z,10.76
2022-10-04T00:05:01.074Z,10.81
2022-10-04T00:06:01.069Z,10.78
2022-10-04T00:07:01.028Z,10.76
2022-10-04T00:08:01.017Z,10.83
2022-10-04T00:09:01.005Z,10.77
2022-10-04T00:10:01.004Z,10.83
2022-10-04T00:11:00.996Z,10.84
2022-10-04T00:12:00.982Z,10.73
2022-10-04T00:13:00.961Z,10.73
2022-10-04T00:14:00.954Z,10.73
2022-10-04T00:15:00.947Z,10.73
2022-10-04T00:16:01.034Z,10.73
2022-10-04T00:17:00.924Z,10.83
2022-10-04T00:18:00.917Z,10.71
2022-10-04T00:19:00.893Z,10.81
2022-10-04T00:20:00.885Z,10.83
2022-10-04T00:21:01.024Z,10.78
2022-10-04T00:22:00.862Z,10.74
2022-10-04T00:23:00.861Z,10.66
2022-10-04T00:24:00.838Z,10.76
2022-10-04T00:25:00.829Z,10.73
2022-10-04T00:26:00.823Z,10.74
2022-10-04T00:27:00.828Z,10.68
2022-10-04T00:28:00.832Z,10.66
2022-10-04T00:29:00.789Z,10.73
2022-10-04T00:30:00.771Z,10.68
2022-10-04T00:31:00.798Z,10.73
2022-10-04T00:32:00.763Z,10.71
2022-10-04T00:33:00.738Z,10.68
2022-10-04T00:34:00.734Z,10.70
2022-10-04T00:35:00.739Z,10.73
2022-10-04T00:36:00.711Z,10.74
2022-10-04T00:37:00.738Z,10.70
2022-10-04T00:38:00.683Z,10.80
2022-10-04T00:39:00.678Z,10.77
2022-10-04T00:40:00.657Z,10.73
2022-10-04T00:41:00.646Z,10.71
2022-10-04T00:42:00.653Z,10.71
2022-10-04T00:43:00.624Z,10.76
2022-10-04T00:44:00.621Z,10.76
2022-10-04T00:45:00.614Z,10.71
2022-10-04T00:46:00.690Z,10.84
2022-10-04T00:47:00.598Z,10.65
2022-10-04T00:48:00.570Z,10.71
2022-10-04T00:49:00.568Z,10.58
2022-10-04T00:50:00.553Z,10.62
2022-10-04T00:51:00.547Z,10.68
2022-10-04T00:52:00.547Z,10.68
2022-10-04T00:53:00.635Z,10.68
2022-10-04T00:54:00.502Z,10.62
2022-10-04T00:55:00.497Z,10.74
2022-10-04T00:56:00.488Z,10.70
2022-10-04T00:57:00.482Z,10.65
2022-10-04T00:58:00.463Z,10.77
2022-10-04T00:59:00.444Z,10.63
2022-10-04T01:00:00.442Z,10.71
2022-10-04T01:01:00.458Z,10.65
2022-10-04T01:02:00.686Z,10.63
2022-10-04T01:03:00.410Z,10.60
2022-10-04T01:04:00.395Z,10.71
2022-10-04T01:05:00.413Z,10.73
2022-10-04T01:06:00.368Z,10.59
2022-10-04T01:07:00.368Z,10.58
2022-10-04T01:08:00.345Z,10.65
2022-10-04T01:09:00.361Z,10.60
2022-10-04T01:10:00.325Z,10.63
2022-10-04T01:11:00.310Z,10.66
2022-10-04T01:12:00.317Z,10.56
2022-10-04T01:13:00.290Z,10.63
2022-10-04T01:14:00.276Z,10.63
2022-10-04T01:15:00.274Z,10.60
2022-10-04T01:16:00.362Z,10.76
2022-10-04T01:17:00.252Z,10.65
2022-10-04T01:18:01.990Z,10.60
2022-10-04T01:19:00.223Z,10.66
2022-10-04T01:20:00.223Z,10.70
2022-10-04T01:21:00.204Z,10.74
2022-10-04T01:22:00.186Z,10.58
2022-10-04T01:23:00.200Z,10.80
2022-10-04T01:24:00.166Z,10.73
2022-10-04T01:25:00.172Z,10.73
2022-10-04T01:26:00.153Z,10.71
2022-10-04T01:27:00.139Z,10.70
2022-10-04T01:28:00.240Z,10.83
2022-10-04T01:29:00.108Z,10.77
2022-10-04T01:30:00.128Z,10.68
2022-10-04T01:31:00.169Z,10.74
2022-10-04T01:32:00.092Z,10.77
2022-10-04T01:33:00.138Z,10.68
2022-10-04T01:34:00.056Z,10.62
2022-10-04T01:35:00.044Z,10.68
2022-10-04T01:36:00.030Z,10.65
2022-10-04T01:37:00.030Z,10.65
2022-10-04T01:38:00.024Z,10.68
2022-10-04T01:39:00.003Z,10.73
2022-10-04T01:39:59.990Z,10.66
2022-10-04T01:40:59.996Z,10.62
2022-10-04T01:41:59.970Z,10.62
2022-10-04T01:42:59.965Z,10.66
2022-10-04T01:43:59.949Z,10.62
2022-10-04T01:44:59.931Z,10.73
2022-10-04T01:45:59.981Z,10.66
2022-10-04T01:46:59.915Z,10.59
2022-10-04T01:47:59.913Z,10.63
2022-10-04T01:48:59.895Z,10.63
2022-10-04T01:49:59.881Z,10.56
2022-10-04T01:50:59.862Z,10.53
2022-10-04T01:51:59.849Z,10.46
2022-10-04T01:52:59.858Z,10.66
2022-10-04T01:53:59.833Z,10.55
2022-10-04T01:54:59.824Z,10.66
2022-10-04T01:55:59.805Z,10.63
2022-10-04T01:56:59.839Z,10.59
2022-10-04T01:57:59.804Z,10.59
2022-10-04T01:58:59.771Z,10.51
2022-10-04T01:59:59.769Z,10.66
2022-10-04T02:00:59.868Z,10.59
2022-10-04T02:01:59.741Z,10.51
2022-10-04T02:02:59.762Z,10.53
2022-10-04T02:03:59.726Z,10.53
2022-10-04T02:04:59.802Z,10.59
2022-10-04T02:05:59.693Z,10.43
2022-10-04T02:06:59.690Z,10.55
2022-10-04T02:07:59.680Z,10.42
2022-10-04T02:08:59.685Z,10.47
2022-10-04T02:09:59.654Z,10.46
2022-10-04T02:10:59.646Z,10.39
2022-10-04T02:11:59.628Z,10.51
2022-10-04T02:12:59.641Z,10.47
2022-10-04T02:13:59.618Z,10.51
2022-10-04T02:14:59.601Z,10.60
2022-10-04T02:15:59.621Z,10.47
2022-10-04T02:16:59.581Z,10.44
2022-10-04T02:17:59.565Z,10.53
2022-10-04T02:18:59.567Z,10.56
2022-10-04T02:19:59.536Z,10.52
2022-10-04T02:20:59.535Z,10.42
2022-10-04T02:21:59.520Z,10.44
2022-10-04T02:22:59.515Z,10.37
2022-10-04T02:23:59.519Z,10.39
2022-10-04T02:24:59.481Z,10.43
2022-10-04T02:25:59.473Z,10.33
2022-10-04T02:26:59.466Z,10.39
2022-10-04T02:27:59.465Z,10.42
2022-10-04T02:28:59.477Z,10.51
2022-10-04T02:29:59.432Z,10.40
2022-10-04T02:30:59.451Z,10.52
2022-10-04T02:31:59.414Z,10.39
2022-10-04T02:32:59.393Z,10.39
2022-10-04T02:33:59.399Z,10.42
2022-10-04T02:34:59.377Z,10.32
2022-10-04T02:35:59.369Z,10.36
2022-10-04T02:36:59.355Z,10.39
2022-10-04T02:37:59.339Z,10.28
2022-10-04T02:38:59.351Z,10.30
2022-10-04T02:39:59.318Z,10.34
2022-10-04T02:40:59.300Z,10.21
2022-10-04T02:41:59.291Z,10.30
2022-10-04T02:42:59.288Z,10.19
2022-10-04T02:43:59.277Z,10.19
2022-10-04T02:44:59.312Z,10.18
2022-10-04T02:45:59.245Z,10.19
2022-10-04T02:46:59.234Z,10.30
2022-10-04T02:47:59.223Z,10.19
2022-10-04T02:48:59.212Z,10.21
2022-10-04T02:49:59.221Z,10.22
2022-10-04T02:50:59.199Z,10.18
2022-10-04T02:51:59.185Z,10.21
2022-10-04T02:52:59.174Z,10.19
2022-10-04T02:54:03.135Z,10.17
2022-10-04T02:54:59.160Z,10.10
2022-10-04T02:55:59.135Z,9.96
2022-10-04T02:56:59.122Z,10.14
2022-10-04T02:57:59.117Z,10.09
2022-10-04T02:58:59.099Z,10.09
2022-10-04T02:59:59.108Z,10.07
2022-10-04T03:00:59.168Z,9.97
2022-10-04T03:01:59.169Z,10.07
2022-10-04T03:02:59.055Z,9.99
2022-10-04T03:03:59.044Z,10.06
2022-10-04T03:04:59.051Z,10.04
2022-10-04T03:05:59.019Z,10.00
2022-10-04T03:06:59.010Z,9.99
2022-10-04T03:07:59.005Z,9.94
2022-10-04T03:08:58.995Z,10.03
2022-10-04T03:09:58.994Z,10.06
2022-10-04T03:10:58.965Z,9.97
2022-10-04T03:11:58.960Z,10.12
2022-10-04T03:12:58.942Z,10.01
2022-10-04T03:13:58.930Z,9.97
2022-10-04T03:14:58.948Z,10.04
2022-10-04T03:15:58.973Z,10.10
2022-10-04T03:16:58.923Z,9.96
2022-10-04T03:17:58.899Z,10.07
2022-10-04T03:18:58.893Z,9.94
2022-10-04T03:19:58.892Z,10.01
2022-10-04T03:20:58.859Z,9.93
2022-10-04T03:21:58.841Z,9.93
2022-10-04T03:22:58.837Z,10.12
2022-10-04T03:23:58.820Z,10.06
2022-10-04T03:24:58.828Z,10.07
2022-10-04T03:25:58.799Z,10.03
2022-10-04T03:26:58.794Z,9.93
2022-10-04T03:27:58.882Z,9.99
2022-10-04T03:28:58.769Z,9.97
2022-10-04T03:29:59.366Z,9.94
2022-10-04T03:30:58.788Z,9.94
2022-10-04T03:31:58.726Z,9.88
2022-10-04T03:32:58.742Z,9.93
2022-10-04T03:33:58.705Z,9.85
2022-10-04T03:34:58.709Z,9.88
2022-10-04T03:35:58.685Z,9.86
2022-10-04T03:36:58.679Z,9.85
2022-10-04T03:37:58.679Z,9.83
2022-10-04T03:38:58.648Z,9.88
2022-10-04T03:39:58.659Z,9.79
2022-10-04T03:40:58.628Z,9.85
2022-10-04T03:41:58.624Z,9.78
2022-10-04T03:42:58.613Z,9.81
2022-10-04T03:44:01.484Z,9.85
2022-10-04T03:44:59.597Z,9.78
2022-10-04T03:45:58.660Z,9.78
2022-10-04T03:46:59.291Z,9.82
2022-10-04T03:47:58.554Z,9.75
2022-10-04T03:48:58.563Z,9.83
2022-10-04T03:49:58.540Z,9.75
2022-10-04T03:50:58.521Z,9.68
2022-10-04T03:51:58.502Z,9.78
2022-10-04T03:52:58.494Z,9.76
2022-10-04T03:53:58.489Z,9.63
2022-10-04T03:54:58.492Z,9.71
2022-10-04T03:56:03.404Z,9.70
2022-10-04T03:56:59.454Z,9.67
2022-10-04T03:57:58.437Z,9.66
2022-10-04T03:58:58.433Z,9.64
2022-10-04T03:59:58.430Z,9.63
2022-10-04T04:00:58.421Z,9.64
2022-10-04T04:01:58.433Z,9.61
2022-10-04T04:02:58.388Z,9.57
2022-10-04T04:03:58.374Z,9.67
2022-10-04T04:04:58.394Z,9.56
2022-10-04T04:05:58.353Z,9.52
2022-10-04T04:06:58.336Z,9.49
2022-10-04T04:07:58.326Z,9.50
2022-10-04T04:08:58.358Z,9.53
2022-10-04T04:09:58.316Z,9.52
2022-10-04T04:10:58.376Z,9.53
2022-10-04T04:11:58.285Z,9.43
2022-10-04T04:12:58.302Z,9.49
2022-10-04T04:13:58.270Z,9.46
2022-10-04T04:14:58.263Z,9.49
2022-10-04T04:15:58.293Z,9.48
2022-10-04T04:16:58.243Z,9.49
2022-10-04T04:17:58.219Z,9.46
2022-10-04T04:18:58.199Z,9.42
2022-10-04T04:19:58.187Z,9.46
2022-10-04T04:20:58.216Z,9.45
2022-10-04T04:21:58.166Z,9.50
2022-10-04T04:22:58.154Z,9.42
2022-10-04T04:23:58.168Z,9.39
2022-10-04T04:24:58.131Z,9.40
2022-10-04T04:25:58.144Z,9.40
2022-10-04T04:26:58.120Z,9.42
2022-10-04T04:27:58.179Z,9.40
2022-10-04T04:28:58.097Z,9.48
2022-10-04T04:29:58.076Z,9.38
2022-10-04T04:30:58.086Z,9.56
2022-10-04T04:31:58.240Z,9.46
2022-10-04T04:32:58.042Z,9.38
2022-10-04T04:33:58.043Z,9.40
2022-10-04T04:34:58.026Z,9.31
2022-10-04T04:35:58.029Z,9.42
2022-10-04T04:36:58.033Z,9.32
2022-10-04T04:37:57.993Z,9.38
2022-10-04T04:38:57.981Z,9.39
2022-10-04T04:39:57.967Z,9.38
2022-10-04T04:40:57.965Z,9.43
2022-10-04T04:41:57.946Z,9.30
2022-10-04T04:42:57.930Z,9.34
2022-10-04T04:43:57.927Z,9.23
2022-10-04T04:44:57.913Z,9.30
2022-10-04T04:46:15.342Z,9.31
2022-10-04T04:46:58.957Z,9.31
2022-10-04T04:47:57.874Z,9.35
2022-10-04T04:48:57.869Z,9.20
2022-10-04T04:49:57.852Z,9.24
2022-10-04T04:50:57.858Z,9.30
2022-10-04T04:51:57.833Z,9.28
2022-10-04T04:52:57.836Z,9.21
2022-10-04T04:53:57.804Z,9.28
2022-10-04T04:54:57.801Z,9.30
2022-10-04T04:56:03.787Z,9.24
2022-10-04T04:56:58.770Z,9.21
2022-10-04T04:57:57.758Z,9.23
2022-10-04T04:58:57.748Z,9.23
2022-10-04T04:59:57.739Z,9.25
2022-10-04T05:00:57.802Z,9.23
2022-10-04T05:01:57.812Z,9.27
2022-10-04T05:02:58.958Z,9.23
2022-10-04T05:03:57.700Z,9.06
2022-10-04T05:04:57.691Z,9.15
2022-10-04T05:05:57.691Z,9.12
2022-10-04T05:06:57.660Z,9.24
2022-10-04T05:07:57.646Z,9.25
2022-10-04T05:08:57.663Z,9.16
2022-10-04T05:09:57.627Z,9.16
2022-10-04T05:10:57.636Z,9.13
2022-10-04T05:11:57.607Z,9.13
2022-10-04T05:12:57.586Z,9.20
2022-10-04T05:13:57.574Z,9.25
2022-10-04T05:14:57.570Z,9.13
2022-10-04T05:15:57.578Z,9.10
2022-10-04T05:16:57.567Z,9.09
2022-10-04T05:17:57.533Z,9.13
2022-10-04T05:18:57.533Z,9.10
2022-10-04T05:19:57.517Z,9.06
2022-10-04T05:20:57.522Z,9.09
2022-10-04T05:21:57.498Z,9.12
2022-10-04T05:22:57.477Z,9.15
2022-10-04T05:23:57.494Z,9.06
2022-10-04T05:24:57.483Z,9.10
2022-10-04T05:25:57.461Z,8.94
2022-10-04T05:26:57.440Z,9.06
2022-10-04T05:27:57.458Z,9.04
2022-10-04T05:28:57.409Z,9.06
2022-10-04T05:29:57.398Z,9.09
2022-10-04T05:30:57.410Z,9.06
2022-10-04T05:31:57.425Z,9.06
2022-10-04T05:32:57.373Z,9.05
2022-10-04T05:33:57.352Z,8.99
2022-10-04T05:34:57.351Z,8.97
2022-10-04T05:35:57.356Z,9.01
2022-10-04T05:36:57.319Z,9.05
2022-10-04T05:37:57.309Z,9.04
2022-10-04T05:38:57.306Z,8.96
2022-10-04T05:39:57.285Z,9.01
2022-10-04T05:40:57.310Z,8.91
2022-10-04T05:41:57.263Z,8.99
2022-10-04T05:42:57.261Z,9.09
2022-10-04T05:43:57.241Z,9.01
2022-10-04T05:44:57.246Z,8.93
2022-10-04T05:45:57.305Z,9.13
2022-10-04T05:46:57.207Z,9.02
2022-10-04T05:47:57.204Z,9.04
2022-10-04T05:48:57.191Z,8.88
2022-10-04T05:49:57.182Z,9.13
2022-10-04T05:50:57.183Z,9.04
2022-10-04T05:51:57.152Z,8.99
2022-10-04T05:52:57.141Z,9.01
2022-10-04T05:53:57.139Z,8.99
2022-10-04T05:54:57.125Z,9.05
2022-10-04T05:55:57.118Z,8.99
2022-10-04T05:56:57.130Z,9.12
2022-10-04T05:57:57.090Z,9.06
2022-10-04T05:58:57.071Z,9.18
2022-10-04T06:00:00.585Z,9.16
2022-10-04T06:00:58.089Z,9.12
2022-10-04T06:01:57.343Z,9.12
2022-10-04T06:02:57.201Z,9.06
2022-10-04T06:03:57.027Z,8.99
2022-10-04T06:04:57.013Z,8.99
2022-10-04T06:05:57.012Z,9.10
2022-10-04T06:06:56.989Z,9.06
2022-10-04T06:07:56.993Z,9.10
2022-10-04T06:08:56.968Z,9.06
2022-10-04T06:09:56.951Z,9.06
2022-10-04T06:10:56.945Z,9.12
2022-10-04T06:11:56.940Z,9.04
2022-10-04T06:12:56.936Z,9.13
2022-10-04T06:13:56.911Z,9.10
2022-10-04T06:14:56.900Z,9.12
2022-10-04T06:15:56.888Z,9.05
2022-10-04T06:16:56.912Z,9.10
2022-10-04T06:17:56.866Z,9.10
2022-10-04T06:18:56.849Z,9.16
2022-10-04T06:19:56.835Z,9.15
2022-10-04T06:20:56.830Z,9.10
2022-10-04T06:21:56.834Z,9.18
2022-10-04T06:22:56.812Z,9.21
2022-10-04T06:23:56.792Z,9.21
2022-10-04T06:24:56.777Z,9.27
2022-10-04T06:25:56.768Z,9.25
2022-10-04T06:26:56.798Z,9.30
2022-10-04T06:27:56.828Z,9.30
2022-10-04T06:28:56.771Z,9.30
2022-10-04T06:29:56.725Z,9.28
2022-10-04T06:30:56.807Z,9.31
2022-10-04T06:31:57.395Z,9.35
2022-10-04T06:32:56.706Z,9.31
2022-10-04T06:33:56.681Z,9.31
2022-10-04T06:34:56.670Z,9.23
2022-10-04T06:35:56.709Z,9.23
2022-10-04T06:36:56.646Z,9.31
2022-10-04T06:37:56.655Z,9.23
2022-10-04T06:38:57.341Z,9.30
2022-10-04T06:39:56.614Z,9.32
2022-10-04T06:40:56.630Z,9.28
2022-10-04T06:41:56.596Z,9.30
2022-10-04T06:42:56.598Z,9.40
2022-10-04T06:43:56.568Z,9.40
2022-10-04T06:44:56.576Z,9.39
2022-10-04T06:45:56.572Z,9.35
2022-10-04T06:46:56.536Z,9.35
2022-10-04T06:47:56.542Z,9.42
2022-10-04T06:48:56.533Z,9.38
2022-10-04T06:49:56.513Z,9.52
2022-10-04T06:50:56.496Z,9.45
2022-10-04T06:51:56.477Z,9.52
2022-10-04T06:52:56.485Z,9.48
2022-10-04T06:53:56.455Z,9.49
2022-10-04T06:54:56.443Z,9.58
2022-10-04T06:55:56.433Z,9.49
2022-10-04T06:56:56.421Z,9.49
2022-10-04T06:57:56.432Z,9.52
2022-10-04T06:58:56.411Z,9.57
2022-10-04T06:59:56.396Z,9.58
2022-10-04T07:00:56.542Z,9.56
2022-10-04T07:01:56.426Z,9.64
2022-10-04T07:02:56.495Z,9.73
2022-10-04T07:03:56.341Z,9.67
2022-10-04T07:05:08.220Z,9.70
2022-10-04T07:05:57.325Z,9.70
2022-10-04T07:06:56.307Z,9.79
2022-10-04T07:07:56.316Z,9.67
2022-10-04T07:08:56.285Z,9.79
2022-10-04T07:09:56.277Z,9.76
2022-10-04T07:10:56.270Z,9.82
2022-10-04T07:11:56.267Z,9.79
2022-10-04T07:12:56.262Z,9.88
2022-10-04T07:13:56.231Z,9.93
2022-10-04T07:14:56.226Z,9.79
2022-10-04T07:15:56.276Z,9.97
2022-10-04T07:16:56.226Z,9.97
2022-10-04T07:17:56.202Z,9.91
2022-10-04T07:18:56.190Z,10.07
2022-10-04T07:19:56.163Z,10.03
2022-10-04T07:20:56.158Z,10.03
2022-10-04T07:21:56.138Z,10.09
2022-10-04T07:22:56.152Z,10.17
2022-10-04T07:23:56.116Z,10.19
2022-10-04T07:24:56.105Z,10.18
2022-10-04T07:25:56.102Z,10.40
2022-10-04T07:26:56.090Z,10.44
2022-10-04T07:27:56.120Z,10.34
2022-10-04T07:28:56.071Z,10.40
2022-10-04T07:29:56.054Z,10.39
2022-10-04T07:30:56.072Z,10.53
2022-10-04T07:31:56.026Z,10.46
2022-10-04T07:32:56.055Z,10.51
2022-10-04T07:33:56.013Z,10.58
2022-10-04T07:34:56.000Z,10.65
2022-10-04T07:35:55.981Z,10.66
2022-10-04T07:36:55.969Z,10.58
2022-10-04T07:37:55.979Z,10.58
2022-10-04T07:38:55.953Z,10.70
2022-10-04T07:39:55.943Z,10.68
2022-10-04T07:40:55.925Z,10.65
2022-10-04T07:41:55.926Z,10.65
2022-10-04T07:42:55.923Z,10.65
2022-10-04T07:43:55.899Z,10.78
2022-10-04T07:44:55.885Z,10.89
2022-10-04T07:45:55.969Z,10.91
2022-10-04T07:46:55.921Z,10.86
2022-10-04T07:47:55.870Z,10.94
2022-10-04T07:48:55.860Z,10.95
2022-10-04T07:49:55.823Z,10.98
2022-10-04T07:50:55.836Z,10.99
2022-10-04T07:51:55.814Z,11.13
2022-10-04T07:52:55.803Z,11.10
2022-10-04T07:53:55.787Z,11.19
2022-10-04T07:54:55.772Z,11.27
2022-10-04T07:55:55.762Z,11.32
2022-10-04T07:56:55.753Z,11.44
2022-10-04T07:57:55.753Z,11.43
2022-10-04T07:58:55.726Z,11.54
2022-10-04T07:59:55.717Z,11.57
2022-10-04T08:00:55.698Z,11.54
2022-10-04T08:01:55.737Z,11.64
2022-10-04T08:02:55.892Z,11.57
2022-10-04T08:03:55.665Z,11.52
2022-10-04T08:04:55.684Z,11.46
2022-10-04T08:05:55.644Z,11.52
2022-10-04T08:06:55.633Z,11.59
2022-10-04T08:07:55.619Z,11.52
2022-10-04T08:08:55.626Z,11.65
2022-10-04T08:09:55.603Z,11.56
2022-10-04T08:10:57.398Z,11.67
2022-10-04T08:11:55.583Z,11.68
2022-10-04T08:12:55.576Z,11.75
2022-10-04T08:13:55.572Z,11.71
2022-10-04T08:14:55.549Z,11.70
2022-10-04T08:15:55.612Z,11.75
2022-10-04T08:16:55.519Z,11.78
2022-10-04T08:17:55.511Z,11.90
2022-10-04T08:18:55.515Z,11.72
2022-10-04T08:19:55.505Z,11.72
2022-10-04T08:20:55.550Z,11.75
2022-10-04T08:21:55.471Z,11.77
2022-10-04T08:22:55.452Z,11.80
2022-10-04T08:23:55.456Z,11.82
2022-10-04T08:24:55.433Z,11.80
2022-10-04T08:25:55.430Z,11.80
2022-10-04T08:26:55.413Z,11.86
2022-10-04T08:27:55.443Z,11.90
2022-10-04T08:28:55.403Z,11.90
2022-10-04T08:29:55.384Z,11.99
2022-10-04T08:30:55.414Z,12.01
2022-10-04T08:31:55.370Z,11.93
2022-10-04T08:32:55.346Z,11.97
2022-10-04T08:33:55.344Z,12.02
2022-10-04T08:34:55.318Z,12.01
2022-10-04T08:35:55.314Z,12.12
2022-10-04T08:36:55.334Z,12.21
2022-10-04T08:37:55.291Z,12.23
2022-10-04T08:38:55.283Z,12.23
2022-10-04T08:39:55.261Z,12.31
2022-10-04T08:40:55.249Z,12.37
2022-10-04T08:41:55.248Z,12.34
2022-10-04T08:42:55.228Z,12.44
2022-10-04T08:43:55.232Z,12.49
2022-10-04T08:44:55.205Z,12.48
2022-10-04T08:45:55.266Z,12.56
2022-10-04T08:46:55.230Z,12.60
2022-10-04T08:47:55.183Z,12.67
2022-10-04T08:48:55.174Z,12.75
2022-10-04T08:49:55.156Z,12.79
2022-10-04T08:50:55.137Z,12.74
2022-10-04T08:51:55.148Z,12.79
2022-10-04T08:52:55.205Z,12.87
2022-10-04T08:53:55.112Z,12.81
2022-10-04T08:54:55.111Z,12.97
2022-10-04T08:55:55.088Z,13.00
2022-10-04T08:56:55.070Z,13.09
2022-10-04T08:57:55.059Z,13.11
2022-10-04T08:58:55.048Z,13.33
2022-10-04T08:59:55.058Z,13.41
2022-10-04T09:00:55.031Z,13.56
2022-10-04T09:01:55.067Z,13.51
2022-10-04T09:02:55.066Z,13.74
2022-10-04T09:03:55.001Z,13.87
2022-10-04T09:04:55.005Z,13.92
2022-10-04T09:05:54.969Z,14.17
2022-10-04T09:06:54.956Z,14.16
2022-10-04T09:07:55.896Z,14.28
2022-10-04T09:08:54.966Z,14.28
2022-10-04T09:09:54.938Z,14.37
2022-10-04T09:10:54.920Z,14.32
2022-10-04T09:11:54.909Z,14.31
2022-10-04T09:12:54.899Z,14.47
2022-10-04T09:13:54.878Z,14.38
2022-10-04T09:14:54.888Z,14.53
2022-10-04T09:15:54.877Z,14.64
2022-10-04T09:16:54.851Z,14.68
2022-10-04T09:17:54.841Z,14.81
2022-10-04T09:18:54.829Z,14.87
2022-10-04T09:19:54.834Z,15.19
2022-10-04T09:20:54.814Z,15.27
2022-10-04T09:21:54.798Z,15.54
2022-10-04T09:22:54.776Z,15.56
2022-10-04T09:23:54.773Z,15.72
2022-10-04T09:24:54.844Z,15.76
2022-10-04T09:25:54.757Z,15.88
2022-10-04T09:26:54.736Z,15.96
2022-10-04T09:27:55.521Z,16.07
2022-10-04T09:28:54.717Z,16.31
2022-10-04T09:29:54.699Z,16.49
2022-10-04T09:30:54.754Z,16.52
2022-10-04T09:31:54.677Z,16.68
2022-10-04T09:32:54.669Z,16.78
2022-10-04T09:33:54.661Z,16.86
2022-10-04T09:34:54.647Z,16.90
2022-10-04T09:35:54.650Z,17.00
2022-10-04T09:36:54.625Z,17.14
2022-10-04T09:37:54.607Z,17.32
2022-10-04T09:39:11.502Z,17.38
2022-10-04T09:39:55.590Z,17.41
2022-10-04T09:40:54.645Z,17.59
2022-10-04T09:41:54.561Z,17.73
2022-10-04T09:42:54.560Z,17.76
2022-10-04T09:43:54.557Z,17.71
2022-10-04T09:44:54.527Z,17.41
2022-10-04T09:45:54.665Z,17.17
2022-10-04T09:46:56.729Z,17.00
2022-10-04T09:47:54.500Z,16.99
2022-10-04T09:48:54.486Z,16.86
2022-10-04T09:49:54.479Z,16.85
2022-10-04T09:50:54.488Z,17.07
2022-10-04T09:51:54.456Z,17.40
2022-10-04T09:52:54.452Z,17.62
2022-10-04T09:53:54.429Z,17.81
2022-10-04T09:54:54.414Z,17.82
2022-10-04T09:55:54.426Z,18.04
2022-10-04T09:56:54.458Z,18.19
2022-10-04T09:57:54.382Z,18.33
2022-10-04T09:58:54.377Z,18.37
2022-10-04T09:59:54.365Z,18.46
2022-10-04T10:00:54.367Z,18.57
2022-10-04T10:01:54.412Z,18.62
2022-10-04T10:02:54.467Z,18.68
2022-10-04T10:03:54.317Z,18.72
2022-10-04T10:04:54.305Z,18.79
2022-10-04T10:05:54.310Z,18.79
2022-10-04T10:06:54.284Z,18.94
2022-10-04T10:07:54.277Z,19.06
2022-10-04T10:08:54.267Z,19.21
2022-10-04T10:09:54.255Z,19.29
2022-10-04T10:10:54.259Z,19.32
2022-10-04T10:11:54.237Z,19.14
2022-10-04T10:12:54.236Z,19.15
2022-10-04T10:13:54.203Z,19.25
2022-10-04T10:14:54.201Z,19.38
2022-10-04T10:15:54.333Z,19.43
2022-10-04T10:16:54.182Z,19.51
2022-10-04T10:17:54.227Z,19.61
2022-10-04T10:18:54.160Z,19.63
2022-10-04T10:19:54.142Z,19.72
2022-10-04T10:20:54.155Z,19.76
2022-10-04T10:21:54.128Z,19.80
2022-10-04T10:22:54.121Z,19.84
2022-10-04T10:23:54.101Z,19.78
2022-10-04T10:24:58.255Z,19.70
2022-10-04T10:25:54.076Z,19.69
2022-10-04T10:26:54.090Z,19.63
2022-10-04T10:27:54.082Z,19.75
2022-10-04T10:28:54.065Z,19.97
2022-10-04T10:29:54.033Z,19.97
2022-10-04T10:30:54.056Z,20.02
2022-10-04T10:31:54.023Z,20.03
2022-10-04T10:32:54.004Z,20.15
2022-10-04T10:33:53.983Z,20.21
2022-10-04T10:34:53.981Z,20.20
2022-10-04T10:35:53.962Z,20.23
2022-10-04T10:36:53.976Z,20.23
2022-10-04T10:37:53.949Z,20.28
2022-10-04T10:38:53.935Z,20.51
2022-10-04T10:39:53.932Z,20.58
2022-10-04T10:40:53.914Z,20.56
2022-10-04T10:41:53.911Z,20.23
2022-10-04T10:42:53.892Z,20.06
2022-10-04T10:43:53.879Z,20.03
2022-10-04T10:44:53.883Z,19.90
2022-10-04T10:45:53.851Z,19.97
2022-10-04T10:46:53.931Z,20.08
2022-10-04T10:47:53.826Z,20.20
2022-10-04T10:48:53.820Z,20.27
2022-10-04T10:49:53.816Z,20.23
2022-10-04T10:50:53.802Z,20.27
2022-10-04T10:51:53.799Z,20.30
2022-10-04T10:52:53.783Z,20.23
2022-10-04T10:53:53.767Z,20.05
2022-10-04T10:54:53.752Z,20.06
2022-10-04T10:55:53.808Z,20.10
2022-10-04T10:56:53.740Z,20.20
2022-10-04T10:57:53.715Z,20.33
2022-10-04T10:58:53.713Z,20.43
2022-10-04T10:59:53.702Z,20.41
2022-10-04T11:00:53.702Z,20.58
2022-10-04T11:01:53.784Z,20.66
2022-10-04T11:02:53.768Z,20.74
2022-10-04T11:03:53.796Z,20.77
2022-10-04T11:04:53.652Z,20.93
2022-10-04T11:05:53.631Z,21.14
2022-10-04T11:06:53.633Z,21.20
2022-10-04T11:07:53.610Z,21.06
2022-10-04T11:08:53.600Z,20.79
2022-10-04T11:09:53.589Z,20.54
2022-10-04T11:10:53.576Z,20.39
2022-10-04T11:11:53.578Z,20.28
2022-10-04T11:12:53.557Z,20.02
2022-10-04T11:13:53.547Z,19.90
2022-10-04T11:14:53.533Z,20.06
2022-10-04T11:15:53.574Z,20.10
2022-10-04T11:16:53.535Z,20.23
2022-10-04T11:17:53.492Z,20.34
2022-10-04T11:18:53.480Z,20.69
2022-10-04T11:19:53.478Z,20.77
2022-10-04T11:20:53.476Z,21.01
2022-10-04T11:21:53.471Z,21.29
2022-10-04T11:22:53.438Z,21.54
2022-10-04T11:23:53.433Z,21.74
2022-10-04T11:24:53.412Z,21.60
2022-10-04T11:25:53.400Z,21.56
2022-10-04T11:26:53.419Z,21.72
2022-10-04T11:27:56.659Z,21.82
2022-10-04T11:28:53.370Z,22.01
2022-10-04T11:29:53.368Z,21.95
2022-10-04T11:30:53.461Z,21.95
2022-10-04T11:31:53.344Z,21.79
2022-10-04T11:32:53.345Z,21.83
2022-10-04T11:33:53.311Z,21.74
2022-10-04T11:34:53.310Z,21.74
2022-10-04T11:35:53.295Z,21.82
2022-10-04T11:36:53.303Z,21.90
2022-10-04T11:37:53.267Z,21.94
2022-10-04T11:38:53.264Z,22.07
2022-10-04T11:39:53.244Z,22.04
2022-10-04T11:40:53.235Z,22.01
2022-10-04T11:41:53.311Z,22.01
2022-10-04T11:42:53.212Z,22.12
2022-10-04T11:43:53.214Z,22.16
2022-10-04T11:44:53.196Z,22.22
2022-10-04T11:45:53.178Z,22.25
2022-10-04T11:46:53.229Z,22.20
2022-10-04T11:47:53.172Z,22.23
2022-10-04T11:48:53.176Z,22.43
2022-10-04T11:49:53.157Z,22.46
2022-10-04T11:50:53.127Z,22.52
2022-10-04T11:51:53.125Z,22.64
2022-10-04T11:52:53.104Z,22.54
2022-10-04T11:53:53.092Z,22.56
2022-10-04T11:54:53.083Z,22.49
2022-10-04T11:55:53.071Z,22.77
2022-10-04T11:56:53.075Z,22.65
2022-10-04T11:57:53.055Z,22.56
2022-10-04T11:58:53.062Z,22.38
2022-10-04T11:59:53.027Z,22.37
2022-10-04T12:00:53.026Z,22.37
2022-10-04T12:01:53.028Z,22.35
2022-10-04T12:02:53.003Z,22.37
2022-10-04T12:03:53.252Z,22.50
2022-10-04T12:04:53.153Z,22.56
2022-10-04T12:05:52.967Z,22.47
2022-10-04T12:06:52.979Z,22.57
2022-10-04T12:07:52.947Z,22.60
2022-10-04T12:08:52.937Z,22.67
2022-10-04T12:09:55.429Z,22.60
2022-10-04T12:10:53.914Z,22.62
2022-10-04T12:11:52.920Z,22.53
2022-10-04T12:12:52.890Z,22.49
2022-10-04T12:13:52.881Z,22.52
2022-10-04T12:14:52.872Z,22.54
2022-10-04T12:15:52.899Z,22.75
2022-10-04T12:16:52.853Z,22.71
2022-10-04T12:17:52.854Z,22.67
2022-10-04T12:18:52.820Z,22.77
2022-10-04T12:19:52.809Z,22.65
2022-10-04T12:20:52.816Z,22.71
2022-10-04T12:21:52.800Z,22.84
2022-10-04T12:22:52.792Z,22.93
2022-10-04T12:23:52.764Z,22.97
2022-10-04T12:24:52.766Z,23.12
2022-10-04T12:25:52.748Z,23.01
2022-10-04T12:26:52.737Z,23.04
2022-10-04T12:27:52.817Z,22.92
2022-10-04T12:28:52.713Z,22.89
2022-10-04T12:29:52.698Z,22.78
2022-10-04T12:30:52.690Z,22.83
2022-10-04T12:31:52.774Z,22.72
2022-10-04T12:32:57.555Z,22.64
2022-10-04T12:33:53.655Z,22.72
2022-10-04T12:34:52.656Z,22.69
2022-10-04T12:35:52.634Z,22.71
2022-10-04T12:36:52.669Z,22.82
2022-10-04T12:37:52.621Z,22.96
2022-10-04T12:38:52.603Z,23.01
2022-10-04T12:39:52.589Z,23.08
2022-10-04T12:40:52.586Z,23.29
2022-10-04T12:41:52.579Z,23.23
2022-10-04T12:42:52.585Z,23.52
2022-10-04T12:43:52.553Z,23.67
2022-10-04T12:44:52.535Z,23.80
2022-10-04T12:45:52.835Z,23.71
2022-10-04T12:46:52.514Z,23.89
2022-10-04T12:47:52.525Z,23.79
2022-10-04T12:48:52.491Z,23.95
2022-10-04T12:49:52.488Z,23.79
2022-10-04T12:50:52.475Z,23.71
2022-10-04T12:51:52.456Z,23.68
2022-10-04T12:52:52.479Z,23.61
2022-10-04T12:53:55.573Z,23.35
2022-10-04T12:54:53.425Z,23.31
2022-10-04T12:55:52.419Z,23.29
2022-10-04T12:56:52.406Z,23.55
2022-10-04T12:57:52.410Z,23.43
2022-10-04T12:58:52.406Z,23.45
2022-10-04T12:59:52.375Z,23.43